Hastings, NE (68901)

2:19 PM CST on December 07, 2016 (GMT -0600)
West 12th Street | | Change Station

Elev 1934 ft 40.60 °N, 98.40 °W | Updated 26 seconds ago

Mostly Cloudy
Mostly Cloudy
21.9 °F
Feels Like 22 °F
N
2.0
Wind Variable Wind from NW
Gusts 26.0 mph

Today
High -- | Low -- °F
--% Chance of Precip.
Yesterday
High -- | Low -- °F
Precip. -- in
Pressure 30.42 in
Visibility 10.0 miles
Clouds Mostly Cloudy 7000 ft
Windchill 22 °F
Dew Point 2 °F
Humidity 42%
Rainfall 0.00 in
Snow Depth Not available.
7:44 AM 5:06 PM
First Quarter, 55% visible
METAR KHSI 071953Z AUTO 33014G17KT 10SM BKN070 M05/M16 A3033 RMK AO2 SLP299 T10501161
Pressure 30.42 in
Visibility 10.0 miles
Clouds Mostly Cloudy 7000 ft
Windchill 22 °F
Dew Point 2 °F
Humidity 42%
Rainfall 0.00 in
Snow Depth Not available.
7:44 AM 5:06 PM
First Quarter, 55% visible
METAR KHSI 071953Z AUTO 33014G17KT 10SM BKN070 M05/M16 A3033 RMK AO2 SLP299 T10501161

10-Day Weather Forecast

Almanac

Astronomy

Dec. 07, 2016 Rise Set
Actual Time
Civil Twilight
Nautical Twilight
Astronomical Twilight
Moon
Length of Visible Light
Length of Day
Tomorrow will be .
, % of the Moon is Illuminated

Today's Extremes

State Highs State Lows

Community

WunderPhotos

Upload Photos

1,956,164 photos uploaded!

WunderBlog® & News

Nearby

Air Quality

  Air Quality AQ Index Pollutant
Not available.

Snow Depth

Station Depth Elevation

Earthquake Activity

City Distance Mag. Time & Date
Minimum magnitude displayed is 2.5.

Coastal Water Temperatures

Place Temperature

Stations

Nearby Weather Stations

Station Location Temp. Windchill Dew Point Humidity Wind Precip. Elev Updated Type
                   

Watches & Warnings

There are currently no watches in effect.